Spires, Illinois
Current Conditions -  °F | °C
As of 9:15 PM on Friday 21 Nov 2014 (Local Time) from KC75 Reporting Station
Overcast Overcast  
Wind Chill: 27°   Ceiling: 2400
Heat Index: 35°   Visibility: 10mi
Dew Point: 14°   Wind: 10mph
Humidity: 42%   Direction: 180°S
Pressure: 30.21"   Gusts: 21mph
Location:  40.8848°N, 89.0396°W
Report Text: KC75 220315Z AUTO 18009G18KT 10SM OVC024 02/M10 A3021 RMK AO2 T00171099
Loading
Personal Weather Stations






























Interactive Weather Map New forecast layout! Learn more

10-Day Weather Forecast

Advertisements
Track Severe Weather on mobile